Time;durP1;ratioP1;P1;durP2;ratioP2;P2;SDS_P1;SDS_P2;PMS_P1;PMS_P2;Temp;Humidity;BMP_temperature;BMP_pressure;BME280_temperature;BME280_humidity;BME280_pressure;Samples;Min_cycle;Max_cycle;Signal;HPM_P1;HPM_P2
2024/02/13 00:00:17;;;;;;;6.30;3.07;;;4.20;99.90;;;;;;6213784;23;20079;-78
2024/02/13 00:02:42;;;;;;;6.03;3.17;;;4.30;99.90;;;;;;6213732;23;20024;-78
2024/02/13 00:05:09;;;;;;;5.33;2.93;;;4.30;99.90;;;;;;6213369;23;20466;-78
2024/02/13 00:07:36;;;;;;;6.67;2.73;;;4.30;99.90;;;;;;6214138;23;20178;-78
2024/02/13 00:10:02;;;;;;;3.60;2.47;;;4.30;99.90;;;;;;6213593;23;20000;-78
2024/02/13 00:12:28;;;;;;;8.47;2.40;;;4.30;99.90;;;;;;6213886;23;20020;-78
2024/02/13 00:14:55;;;;;;;6.17;2.30;;;4.30;99.90;;;;;;6212837;23;20086;-78
2024/02/13 00:17:23;;;;;;;6.87;2.20;;;4.40;99.90;;;;;;6212479;23;20346;-78
2024/02/13 00:19:49;;;;;;;6.77;2.67;;;4.40;99.90;;;;;;6213507;23;20481;-77
2024/02/13 00:22:15;;;;;;;4.00;2.40;;;4.40;99.90;;;;;;6213340;23;20001;-78
2024/02/13 00:24:40;;;;;;;6.53;2.20;;;4.40;99.90;;;;;;6212667;23;20330;-79
2024/02/13 00:27:06;;;;;;;7.27;2.70;;;4.40;99.90;;;;;;6213994;23;20102;-78
2024/02/13 00:29:32;;;;;;;8.63;3.07;;;4.40;99.90;;;;;;6213279;23;20060;-78
2024/02/13 00:31:58;;;;;;;6.50;2.60;;;4.30;99.90;;;;;;6213404;23;20435;-78
2024/02/13 00:34:24;;;;;;;6.03;2.70;;;4.40;99.90;;;;;;6212587;23;20008;-78
2024/02/13 00:36:50;;;;;;;5.07;2.43;;;4.30;99.90;;;;;;6213695;23;20007;-78
2024/02/13 00:39:16;;;;;;;7.70;2.60;;;4.30;99.90;;;;;;6213120;23;20028;-78
2024/02/13 00:41:42;;;;;;;8.80;2.77;;;4.30;99.90;;;;;;6213172;23;20397;-78
2024/02/13 00:44:07;;;;;;;5.33;2.80;;;4.30;99.90;;;;;;6212492;23;20004;-78
2024/02/13 00:46:34;;;;;;;9.47;3.23;;;4.30;99.90;;;;;;6213656;23;20030;-79
2024/02/13 00:49:00;;;;;;;5.50;2.80;;;4.30;99.90;;;;;;6213542;23;20000;-79
2024/02/13 00:51:26;;;;;;;6.17;2.93;;;4.30;99.90;;;;;;6213713;23;20015;-78
2024/02/13 00:53:52;;;;;;;7.80;2.90;;;4.30;99.90;;;;;;6213138;23;20013;-78
2024/02/13 00:56:18;;;;;;;4.50;2.60;;;4.20;99.90;;;;;;6213519;23;20011;-78
2024/02/13 00:58:46;;;;;;;5.73;2.67;;;4.20;99.90;;;;;;6213046;23;20074;-78
2024/02/13 01:01:12;;;;;;;6.37;2.77;;;4.20;99.90;;;;;;6213579;23;19997;-79
2024/02/13 01:03:40;;;;;;;7.93;3.17;;;4.30;99.90;;;;;;6213258;23;20139;-78
2024/02/13 01:06:07;;;;;;;4.43;2.43;;;4.20;99.90;;;;;;6212790;23;20013;-78
2024/02/13 01:08:33;;;;;;;8.33;2.93;;;4.20;99.90;;;;;;6213690;23;20004;-78
2024/02/13 01:10:59;;;;;;;6.03;2.70;;;4.20;99.90;;;;;;6213335;23;20059;-78
2024/02/13 01:13:26;;;;;;;6.43;2.90;;;4.20;99.90;;;;;;6212932;23;20008;-78
2024/02/13 01:15:52;;;;;;;5.70;3.20;;;4.30;99.90;;;;;;6212976;23;20020;-78
2024/02/13 01:18:17;;;;;;;6.67;2.90;;;4.20;99.90;;;;;;6213250;23;19997;-79
2024/02/13 01:20:43;;;;;;;5.30;2.63;;;4.20;99.90;;;;;;6213631;23;20004;-78
2024/02/13 01:23:11;;;;;;;5.93;2.77;;;4.20;99.90;;;;;;6212997;23;20015;-78
2024/02/13 01:25:38;;;;;;;7.40;2.43;;;4.20;99.90;;;;;;6211953;23;20447;-78
2024/02/13 01:28:05;;;;;;;5.70;2.57;;;4.20;99.90;;;;;;6213405;23;20020;-78
2024/02/13 01:30:30;;;;;;;6.23;2.97;;;4.20;99.90;;;;;;6214056;23;20009;-78
2024/02/13 01:32:56;;;;;;;5.03;2.50;;;4.30;99.90;;;;;;6213382;23;20316;-79
2024/02/13 01:35:21;;;;;;;7.37;2.33;;;4.30;99.90;;;;;;6213027;23;19997;-78
2024/02/13 01:37:47;;;;;;;5.50;2.23;;;4.20;99.90;;;;;;6213156;23;20000;-78
2024/02/13 01:40:16;;;;;;;7.73;2.60;;;4.20;99.90;;;;;;6213403;23;20008;-78
2024/02/13 01:42:41;;;;;;;4.13;2.17;;;4.20;99.90;;;;;;6213001;23;20312;-78
2024/02/13 01:45:09;;;;;;;10.17;2.30;;;4.20;99.90;;;;;;6213512;23;20050;-78
2024/02/13 01:47:36;;;;;;;5.57;2.40;;;4.30;99.90;;;;;;6214768;23;20384;-78
2024/02/13 01:50:05;;;;;;;5.73;2.40;;;4.20;99.90;;;;;;6215050;23;19997;-78
2024/02/13 01:52:32;;;;;;;5.90;2.20;;;4.30;99.90;;;;;;6214934;23;19997;-78
2024/02/13 01:54:59;;;;;;;5.60;2.57;;;4.20;99.90;;;;;;6214585;23;20008;-78
2024/02/13 01:57:26;;;;;;;5.80;2.20;;;4.20;99.90;;;;;;6214924;23;20319;-78
2024/02/13 01:59:52;;;;;;;4.97;2.33;;;4.20;99.90;;;;;;6215428;23;20112;-78
2024/02/13 02:02:18;;;;;;;6.73;2.30;;;4.20;99.90;;;;;;6215503;23;20317;-78
2024/02/13 02:04:45;;;;;;;10.20;2.50;;;4.20;99.90;;;;;;6214425;23;20005;-78
2024/02/13 02:07:12;;;;;;;4.87;2.97;;;4.30;99.90;;;;;;6215188;23;20000;-79
2024/02/13 02:09:38;;;;;;;3.67;2.10;;;4.30;99.90;;;;;;6215786;23;20024;-78
2024/02/13 02:12:04;;;;;;;7.57;2.43;;;4.20;99.90;;;;;;6214594;23;20004;-78
2024/02/13 02:14:30;;;;;;;5.93;2.07;;;4.20;99.90;;;;;;6213940;23;20009;-78
2024/02/13 02:17:08;;;;;;;5.83;2.83;;;4.30;99.90;;;;;;6214792;23;20384;-78
2024/02/13 02:19:34;;;;;;;10.00;2.23;;;4.20;99.90;;;;;;6215189;23;20327;-78
2024/02/13 02:21:59;;;;;;;6.23;2.00;;;4.30;99.90;;;;;;6215426;23;20004;-78
2024/02/13 02:24:26;;;;;;;5.70;2.13;;;4.30;99.90;;;;;;6214473;23;20004;-78
2024/02/13 02:26:52;;;;;;;5.17;1.70;;;4.30;99.90;;;;;;6215461;23;20005;-79
2024/02/13 02:29:18;;;;;;;5.43;1.83;;;4.30;99.90;;;;;;6215134;23;19997;-78
2024/02/13 02:31:43;;;;;;;6.83;2.00;;;4.40;99.90;;;;;;6215410;23;20091;-78
2024/02/13 02:34:10;;;;;;;5.77;1.73;;;4.40;99.90;;;;;;6214269;23;20013;-78
2024/02/13 02:36:36;;;;;;;4.97;1.90;;;4.40;99.90;;;;;;6214854;23;20030;-78
2024/02/13 02:39:03;;;;;;;8.17;2.33;;;4.40;99.90;;;;;;6215583;23;20431;-78
2024/02/13 02:41:28;;;;;;;6.90;2.10;;;4.50;99.90;;;;;;6214254;23;20005;-78
2024/02/13 02:43:54;;;;;;;5.10;2.07;;;4.50;99.90;;;;;;6214780;23;20080;-78
2024/02/13 02:46:19;;;;;;;4.87;1.80;;;4.50;99.90;;;;;;6214817;23;20335;-78
2024/02/13 02:48:45;;;;;;;8.07;2.67;;;4.50;99.90;;;;;;6214621;23;20017;-78
2024/02/13 02:51:10;;;;;;;8.07;2.30;;;4.50;99.90;;;;;;6214488;23;19997;-78
2024/02/13 02:53:36;;;;;;;8.57;1.93;;;4.60;99.90;;;;;;6214359;23;20012;-78
2024/02/13 02:56:02;;;;;;;5.63;2.13;;;4.60;99.90;;;;;;6214690;23;20013;-78
2024/02/13 02:58:27;;;;;;;4.63;1.70;;;4.60;99.90;;;;;;6214611;23;20001;-78
2024/02/13 03:00:53;;;;;;;7.47;2.10;;;4.60;99.90;;;;;;6215013;23;20445;-78
2024/02/13 03:03:20;;;;;;;6.47;1.87;;;4.60;99.90;;;;;;6214618;23;20449;-78
2024/02/13 03:05:47;;;;;;;6.63;1.90;;;4.60;99.90;;;;;;6214564;23;20000;-78
2024/02/13 03:08:12;;;;;;;4.93;1.80;;;4.70;99.90;;;;;;6214519;23;20036;-78
2024/02/13 03:10:38;;;;;;;7.30;1.77;;;4.70;99.90;;;;;;6215108;23;19997;-78
2024/02/13 03:13:03;;;;;;;10.07;2.43;;;4.70;99.90;;;;;;6214273;23;20024;-78
2024/02/13 03:15:29;;;;;;;5.63;1.93;;;4.70;99.90;;;;;;6213983;23;20015;-78
2024/02/13 03:17:54;;;;;;;6.00;1.90;;;4.70;99.90;;;;;;6214022;23;20091;-78
2024/02/13 03:20:20;;;;;;;6.90;1.93;;;4.70;99.90;;;;;;6215298;23;20466;-79
2024/02/13 03:22:46;;;;;;;7.20;1.90;;;4.70;99.90;;;;;;6214107;23;20005;-78
2024/02/13 03:25:11;;;;;;;5.87;1.70;;;4.70;99.90;;;;;;6213416;23;20368;-78
2024/02/13 03:27:37;;;;;;;5.87;1.80;;;4.80;99.90;;;;;;6214658;23;20000;-78
2024/02/13 03:30:03;;;;;;;5.87;1.60;;;4.70;99.90;;;;;;6215205;23;20079;-78
2024/02/13 03:32:29;;;;;;;8.20;2.33;;;4.70;99.90;;;;;;6214076;23;20339;-78
2024/02/13 03:34:55;;;;;;;3.43;1.67;;;4.70;99.90;;;;;;6213465;23;20074;-78
2024/02/13 03:37:20;;;;;;;8.07;1.93;;;4.80;99.90;;;;;;6214880;23;20008;-78
2024/02/13 03:39:46;;;;;;;5.80;2.10;;;4.80;99.90;;;;;;6214069;23;20080;-78
2024/02/13 03:42:12;;;;;;;6.17;1.90;;;4.70;99.90;;;;;;6214731;23;20051;-78
2024/02/13 03:44:37;;;;;;;3.60;1.60;;;4.80;99.90;;;;;;6213452;23;20398;-78
2024/02/13 03:47:06;;;;;;;6.63;1.70;;;4.80;99.90;;;;;;6214684;23;20083;-78
2024/02/13 03:49:32;;;;;;;4.93;1.83;;;4.80;99.90;;;;;;6214042;23;20027;-78
2024/02/13 03:51:59;;;;;;;5.83;1.80;;;4.70;99.90;;;;;;6213666;23;20384;-78
2024/02/13 03:54:24;;;;;;;6.23;1.73;;;4.70;99.90;;;;;;6213395;23;20004;-78
2024/02/13 03:56:50;;;;;;;5.37;1.57;;;4.70;99.90;;;;;;6214249;23;20079;-79
2024/02/13 03:59:16;;;;;;;4.43;1.70;;;4.70;99.90;;;;;;6214070;23;20126;-78
2024/02/13 04:01:43;;;;;;;6.07;1.70;;;4.70;99.90;;;;;;6214279;23;19997;-79
2024/02/13 04:04:08;;;;;;;4.90;1.90;;;4.80;99.90;;;;;;6213799;23;20009;-78
2024/02/13 04:06:35;;;;;;;6.40;1.87;;;4.70;99.90;;;;;;6213120;23;20079;-79
2024/02/13 04:09:06;;;;;;;8.13;2.10;;;4.70;99.90;;;;;;6214137;23;20059;-78
2024/02/13 04:11:32;;;;;;;6.53;2.00;;;4.70;99.90;;;;;;6214212;23;20005;-78
2024/02/13 04:13:58;;;;;;;4.67;1.70;;;4.70;99.90;;;;;;6213517;23;20040;-78
2024/02/13 04:16:24;;;;;;;4.53;1.77;;;4.70;99.90;;;;;;6213426;23;20005;-78
2024/02/13 04:18:50;;;;;;;7.03;1.90;;;4.70;99.90;;;;;;6214082;23;20001;-78
2024/02/13 04:21:17;;;;;;;9.63;2.57;;;4.70;99.90;;;;;;6213603;23;20005;-78
2024/02/13 04:23:44;;;;;;;6.43;2.40;;;4.70;99.90;;;;;;6213535;23;20005;-78
2024/02/13 04:26:09;;;;;;;6.53;1.60;;;4.70;99.90;;;;;;6213655;23;20500;-78
2024/02/13 04:28:35;;;;;;;5.77;1.83;;;4.70;99.90;;;;;;6213447;23;20005;-78
2024/02/13 04:31:00;;;;;;;6.83;2.23;;;4.70;99.90;;;;;;6214380;23;20050;-78
2024/02/13 04:33:26;;;;;;;7.40;1.67;;;4.70;99.90;;;;;;6213517;23;20403;-78
2024/02/13 04:35:52;;;;;;;4.93;1.70;;;4.70;99.90;;;;;;6213823;23;20004;-78
2024/02/13 04:38:17;;;;;;;6.93;1.70;;;4.70;99.90;;;;;;6213941;23;20016;-78
2024/02/13 04:40:43;;;;;;;8.70;2.67;;;4.70;99.90;;;;;;6213968;23;20028;-78
2024/02/13 04:43:09;;;;;;;5.87;1.70;;;4.60;99.90;;;;;;6212999;23;20028;-78
2024/02/13 04:45:34;;;;;;;6.07;1.77;;;4.60;99.90;;;;;;6213621;23;20008;-78
2024/02/13 04:48:00;;;;;;;7.20;2.30;;;4.60;99.90;;;;;;6213418;23;20469;-78
2024/02/13 04:50:27;;;;;;;5.53;1.40;;;4.60;99.90;;;;;;6214112;23;20066;-78
2024/02/13 04:52:54;;;;;;;6.53;2.00;;;4.60;99.90;;;;;;6213169;23;20001;-78
2024/02/13 04:55:19;;;;;;;6.70;2.37;;;4.50;99.90;;;;;;6212871;23;20024;-77
2024/02/13 04:57:46;;;;;;;4.07;1.67;;;4.50;99.90;;;;;;6212370;23;20005;-78
2024/02/13 05:00:24;;;;;;;5.90;1.83;;;4.50;99.90;;;;;;6213547;23;20015;-78
2024/02/13 05:08:21;;;;;;;8.20;2.10;;;4.40;99.90;;;;;;6213835;23;20055;-78
2024/02/13 05:10:48;;;;;;;6.50;1.90;;;4.30;99.90;;;;;;6213098;23;20009;-78
2024/02/13 05:13:15;;;;;;;8.97;1.87;;;4.30;99.90;;;;;;6213031;23;20025;-77
2024/02/13 05:15:41;;;;;;;8.13;2.40;;;4.20;99.90;;;;;;6211346;23;19997;-77
2024/02/13 05:18:06;;;;;;;5.70;2.60;;;4.20;99.90;;;;;;6212237;23;20013;-77
2024/02/13 05:20:32;;;;;;;5.43;2.40;;;4.20;99.90;;;;;;6212217;23;20059;-77
2024/02/13 05:22:59;;;;;;;5.43;2.20;;;4.10;99.90;;;;;;6212319;23;20001;-77
2024/02/13 05:25:26;;;;;;;9.07;1.87;;;4.10;99.90;;;;;;6210996;23;20427;-77
2024/02/13 05:27:52;;;;;;;5.87;2.20;;;4.10;99.90;;;;;;6211492;23;20012;-77
2024/02/13 05:30:18;;;;;;;8.27;2.47;;;4.00;99.90;;;;;;6212367;23;20062;-77
2024/02/13 05:32:44;;;;;;;11.90;2.40;;;4.00;99.90;;;;;;6211617;23;20007;-77
2024/02/13 05:35:09;;;;;;;10.43;2.00;;;4.00;99.90;;;;;;6211739;23;20032;-77
2024/02/13 05:37:37;;;;;;;7.80;2.00;;;3.90;99.90;;;;;;6212315;23;20385;-77
2024/02/13 05:40:05;;;;;;;3.70;1.60;;;3.90;99.90;;;;;;6212911;23;20032;-76
2024/02/13 05:42:30;;;;;;;7.63;2.00;;;3.90;99.90;;;;;;6211988;23;20005;-71
2024/02/13 05:44:57;;;;;;;9.20;2.13;;;3.80;99.90;;;;;;6214612;23;20004;-79
2024/02/13 05:47:23;;;;;;;8.73;2.10;;;3.80;99.90;;;;;;6215484;23;20020;-79
2024/02/13 05:49:49;;;;;;;5.53;2.10;;;3.80;99.90;;;;;;6213344;23;20035;-79
2024/02/13 05:52:16;;;;;;;7.30;2.40;;;3.80;99.90;;;;;;6213329;23;19996;-79
2024/02/13 05:54:42;;;;;;;6.60;2.00;;;3.80;99.90;;;;;;6215124;23;20004;-80
2024/02/13 05:57:07;;;;;;;7.77;2.47;;;3.80;99.90;;;;;;6217093;23;20012;-80
2024/02/13 05:59:33;;;;;;;6.07;2.00;;;3.80;99.90;;;;;;6217396;23;20001;-80
2024/02/13 06:01:58;;;;;;;9.17;2.60;;;3.70;99.90;;;;;;6217058;23;20071;-79
2024/02/13 06:04:24;;;;;;;9.40;2.17;;;3.70;99.90;;;;;;6216184;23;20327;-80
2024/02/13 06:06:50;;;;;;;6.57;1.93;;;3.80;99.90;;;;;;6216412;23;20018;-79
2024/02/13 06:09:24;;;;;;;9.37;2.73;;;3.80;99.90;;;;;;6216824;23;20047;-81
2024/02/13 06:11:50;;;;;;;12.50;2.33;;;3.80;99.90;;;;;;6216517;23;20008;-80
2024/02/13 06:14:16;;;;;;;4.77;1.90;;;3.70;99.90;;;;;;6216323;23;20435;-81
2024/02/13 06:16:42;;;;;;;8.17;2.50;;;3.70;99.90;;;;;;6216675;23;20518;-80
2024/02/13 06:19:09;;;;;;;8.07;2.03;;;3.70;99.90;;;;;;6217270;23;20015;-81
2024/02/13 06:21:35;;;;;;;9.67;2.47;;;3.70;99.90;;;;;;6216955;23;19996;-81
2024/02/13 06:24:00;;;;;;;4.80;2.00;;;3.60;99.90;;;;;;6216939;23;20005;-80
2024/02/13 06:26:26;;;;;;;8.73;3.13;;;3.60;99.90;;;;;;6216759;23;19996;-81
2024/02/13 06:28:52;;;;;;;10.33;2.40;;;3.60;99.90;;;;;;6217308;23;20015;-80
2024/02/13 06:31:17;;;;;;;4.50;2.40;;;3.60;99.90;;;;;;6217776;23;20000;-81
2024/02/13 06:33:43;;;;;;;6.73;2.23;;;3.50;99.90;;;;;;6219040;23;20406;-81
2024/02/13 06:36:10;;;;;;;10.03;2.40;;;3.50;99.90;;;;;;6218657;23;19997;-81
2024/02/13 06:38:36;;;;;;;6.87;2.43;;;3.50;99.90;;;;;;6219279;23;20004;-81
2024/02/13 06:41:05;;;;;;;7.17;2.30;;;3.50;99.90;;;;;;6219449;23;20004;-81
2024/02/13 06:43:34;;;;;;;8.87;2.37;;;3.40;99.90;;;;;;6219175;23;20069;-81
2024/02/13 06:46:01;;;;;;;7.50;2.23;;;3.40;99.90;;;;;;6218508;23;20001;-81
2024/02/13 06:48:26;;;;;;;6.80;2.20;;;3.40;99.90;;;;;;6219116;23;20374;-81
2024/02/13 06:50:52;;;;;;;9.53;2.50;;;3.40;99.90;;;;;;6218210;23;20008;-81
2024/02/13 06:53:17;;;;;;;7.63;2.30;;;3.40;99.90;;;;;;6218372;23;20045;-81
2024/02/13 06:55:43;;;;;;;14.60;3.70;;;3.40;99.90;;;;;;6211349;23;20482;-81
2024/02/13 06:58:10;;;;;;;7.07;2.60;;;3.40;99.90;;;;;;6217965;23;20050;-81
2024/02/13 07:00:36;;;;;;;6.33;2.50;;;3.40;99.90;;;;;;6218430;23;20012;-81
2024/02/13 07:03:02;;;;;;;5.97;2.43;;;3.40;99.90;;;;;;6218673;23;20339;-80
2024/02/13 07:05:29;;;;;;;8.40;2.77;;;3.40;99.90;;;;;;6216942;23;19997;-79
2024/02/13 07:07:55;;;;;;;6.83;2.43;;;3.30;99.90;;;;;;6217618;23;20039;-79
2024/02/13 07:10:21;;;;;;;7.50;2.50;;;3.40;99.90;;;;;;6217295;23;20000;-79
2024/02/13 07:12:47;;;;;;;6.47;2.23;;;3.40;99.90;;;;;;6216891;23;20012;-79
2024/02/13 07:15:12;;;;;;;7.60;2.67;;;3.30;99.90;;;;;;6216148;23;20008;-79
2024/02/13 07:17:38;;;;;;;7.13;2.30;;;3.30;99.90;;;;;;6215801;23;20004;-79
2024/02/13 07:20:04;;;;;;;5.63;2.83;;;3.30;99.90;;;;;;6216466;23;20076;-79
2024/02/13 07:22:29;;;;;;;8.67;2.47;;;3.30;99.90;;;;;;6216993;23;20375;-82
2024/02/13 07:24:55;;;;;;;5.50;2.27;;;3.30;99.90;;;;;;6216414;23;20008;-79
2024/02/13 07:27:20;;;;;;;8.90;2.40;;;3.40;99.90;;;;;;6216420;23;20009;-79
2024/02/13 07:29:46;;;;;;;6.83;2.40;;;3.30;99.90;;;;;;6215166;23;20008;-78
2024/02/13 07:32:11;;;;;;;8.07;2.40;;;3.30;99.90;;;;;;6214581;23;20058;-78
2024/02/13 07:34:38;;;;;;;9.33;3.00;;;3.40;99.90;;;;;;6215072;23;20018;-79
2024/02/13 07:37:08;;;;;;;6.57;2.47;;;3.40;99.90;;;;;;6215526;23;20366;-79
2024/02/13 07:39:36;;;;;;;6.60;2.20;;;3.40;99.90;;;;;;6215514;23;20071;-78
2024/02/13 07:42:02;;;;;;;7.20;3.07;;;3.40;99.90;;;;;;6214243;23;19996;-78
2024/02/13 07:44:29;;;;;;;10.70;3.57;;;3.40;99.90;;;;;;6214588;23;20047;-78
2024/02/13 07:46:56;;;;;;;4.97;2.47;;;3.40;99.90;;;;;;6214936;23;20047;-78
2024/02/13 07:49:22;;;;;;;6.77;2.43;;;3.40;99.90;;;;;;6215176;23;20001;-78
2024/02/13 07:51:48;;;;;;;9.13;2.40;;;3.50;99.90;;;;;;6188092;23;20300;-78
2024/02/13 07:54:14;;;;;;;5.50;2.20;;;3.50;99.90;;;;;;6214119;23;20008;-78
2024/02/13 07:56:41;;;;;;;5.90;2.50;;;3.50;99.90;;;;;;6214682;23;20309;-78
2024/02/13 07:59:07;;;;;;;8.90;2.63;;;3.60;99.90;;;;;;6215587;23;20068;-78
2024/02/13 08:01:33;;;;;;;10.27;2.57;;;3.60;99.90;;;;;;6214984;23;20469;-78
2024/02/13 08:04:00;;;;;;;6.40;2.10;;;3.70;99.90;;;;;;6215337;23;20111;-78
2024/02/13 08:06:26;;;;;;;8.80;2.50;;;3.70;99.90;;;;;;6213515;23;20001;-78
2024/02/13 08:08:51;;;;;;;8.27;2.50;;;3.80;99.90;;;;;;6214813;23;20004;-78
2024/02/13 08:11:17;;;;;;;8.40;2.57;;;3.80;99.90;;;;;;6210589;23;20009;-79
2024/02/13 08:13:43;;;;;;;5.23;2.20;;;3.90;99.90;;;;;;6214603;23;20008;-79
2024/02/13 08:16:11;;;;;;;7.30;2.10;;;4.10;99.90;;;;;;6215279;23;20000;-78
2024/02/13 08:18:37;;;;;;;8.27;2.37;;;4.20;99.90;;;;;;6217754;23;20084;-80
2024/02/13 08:21:04;;;;;;;6.77;2.30;;;4.20;99.90;;;;;;6217053;23;20410;-79
2024/02/13 08:23:29;;;;;;;9.27;2.33;;;4.40;99.90;;;;;;6214434;23;20001;-78
2024/02/13 08:25:55;;;;;;;6.63;2.10;;;4.50;99.90;;;;;;6213765;23;20345;-77
2024/02/13 08:28:21;;;;;;;11.07;2.50;;;4.60;99.90;;;;;;6214073;23;20072;-79
2024/02/13 08:30:48;;;;;;;11.40;3.47;;;4.70;99.90;;;;;;6214950;23;20327;-78
2024/02/13 08:33:14;;;;;;;4.23;2.30;;;4.80;99.90;;;;;;6215289;23;20001;-78
2024/02/13 08:35:42;;;;;;;7.00;2.53;;;5.00;99.90;;;;;;6215324;23;20311;-78
2024/02/13 08:38:08;;;;;;;8.10;2.47;;;5.20;99.90;;;;;;6214828;23;20019;-78
2024/02/13 08:40:33;;;;;;;6.20;2.50;;;5.30;99.90;;;;;;6214944;23;20412;-79
2024/02/13 08:42:59;;;;;;;6.80;2.10;;;5.40;99.90;;;;;;6216162;23;20069;-79
2024/02/13 08:45:24;;;;;;;7.30;2.60;;;5.60;99.90;;;;;;6215697;23;20005;-79
2024/02/13 08:47:50;;;;;;;7.97;2.37;;;5.70;99.90;;;;;;6215228;23;20001;-79
2024/02/13 08:50:17;;;;;;;8.67;2.50;;;5.80;99.90;;;;;;6214014;23;20001;-79
2024/02/13 08:52:42;;;;;;;6.00;2.83;;;5.90;99.90;;;;;;6213800;23;20004;-78
2024/02/13 08:55:08;;;;;;;10.47;4.10;;;6.00;99.90;;;;;;6212788;23;20047;-79
2024/02/13 08:57:35;;;;;;;7.10;2.60;;;6.10;99.90;;;;;;6213968;23;20004;-79
2024/02/13 09:00:01;;;;;;;7.07;3.00;;;6.20;99.90;;;;;;6214169;23;20011;-78
2024/02/13 09:02:27;;;;;;;8.63;3.43;;;6.20;99.90;;;;;;6214099;23;20352;-79
2024/02/13 09:04:53;;;;;;;8.83;3.10;;;6.30;99.90;;;;;;6215697;23;20493;-79
2024/02/13 09:07:19;;;;;;;7.73;2.70;;;6.40;99.90;;;;;;6216601;23;19996;-78
2024/02/13 09:09:45;;;;;;;10.13;2.17;;;6.50;99.90;;;;;;6217165;23;20009;-79
2024/02/13 09:12:11;;;;;;;8.83;2.10;;;6.60;99.90;;;;;;6216527;23;20000;-79
2024/02/13 09:14:37;;;;;;;5.40;1.90;;;6.70;99.90;;;;;;6216083;23;20060;-78
2024/02/13 09:17:03;;;;;;;7.93;2.03;;;6.90;99.90;;;;;;6216726;23;20009;-79
2024/02/13 09:19:29;;;;;;;7.93;2.10;;;7.00;99.90;;;;;;6216515;23;20084;-79
2024/02/13 09:21:55;;;;;;;6.47;1.87;;;7.10;99.90;;;;;;6217668;23;19997;-79
2024/02/13 09:24:23;;;;;;;7.73;1.80;;;7.30;99.90;;;;;;6215126;23;20070;-76
2024/02/13 09:26:51;;;;;;;9.93;1.50;;;7.40;99.90;;;;;;6215901;23;20049;-79
2024/02/13 09:29:17;;;;;;;9.47;2.40;;;7.50;99.90;;;;;;6217263;23;19997;-79
2024/02/13 09:31:43;;;;;;;7.23;1.60;;;7.70;99.90;;;;;;6217389;23;19997;-79
2024/02/13 09:34:08;;;;;;;13.00;3.93;;;7.80;99.90;;;;;;6216854;23;20366;-79
2024/02/13 09:36:37;;;;;;;6.27;1.73;;;8.10;99.90;;;;;;6217725;23;20379;-79
2024/02/13 09:39:03;;;;;;;7.80;1.80;;;8.20;99.90;;;;;;6217477;23;20427;-78
2024/02/13 09:41:29;;;;;;;6.83;1.53;;;8.20;99.90;;;;;;6216561;23;19993;-79
2024/02/13 09:43:57;;;;;;;9.43;1.70;;;8.10;99.90;;;;;;6216843;23;20383;-80
2024/02/13 09:46:24;;;;;;;7.53;1.80;;;8.10;99.90;;;;;;6217481;23;20048;-79
2024/02/13 09:48:54;;;;;;;8.20;1.60;;;8.00;99.90;;;;;;6217743;23;20016;-80
2024/02/13 09:51:21;;;;;;;7.13;1.57;;;7.90;99.90;;;;;;6216855;23;20008;-79
2024/02/13 09:53:47;;;;;;;7.93;1.90;;;7.70;99.90;;;;;;6217387;23;20013;-79
2024/02/13 09:56:14;;;;;;;5.13;1.60;;;7.60;99.90;;;;;;6217292;23;20159;-80
2024/02/13 09:58:41;;;;;;;7.47;2.00;;;7.50;99.90;;;;;;6217541;23;20004;-79
2024/02/13 10:01:07;;;;;;;7.83;2.47;;;7.50;99.90;;;;;;6217157;23;20005;-79
2024/02/13 10:03:35;;;;;;;5.10;1.70;;;7.40;99.90;;;;;;6217481;23;20079;-79
2024/02/13 10:06:00;;;;;;;5.07;2.93;;;7.40;99.90;;;;;;6217399;23;19997;-79
2024/02/13 10:08:30;;;;;;;4.67;1.70;;;7.40;99.90;;;;;;6219505;23;20003;-80
2024/02/13 10:11:04;;;;;;;7.27;1.83;;;7.50;99.90;;;;;;6219482;23;20067;-80
2024/02/13 10:13:31;;;;;;;4.73;1.80;;;7.80;99.90;;;;;;6220040;23;20019;-80
2024/02/13 10:15:57;;;;;;;9.63;2.30;;;7.80;99.90;;;;;;6218810;23;20013;-80
2024/02/13 10:18:24;;;;;;;8.20;2.10;;;7.80;99.90;;;;;;6220398;23;19996;-80
2024/02/13 10:20:51;;;;;;;6.57;1.60;;;7.70;99.90;;;;;;6216181;23;20436;-83
2024/02/13 10:23:18;;;;;;;10.80;1.80;;;7.60;99.90;;;;;;6218529;23;20008;-80
2024/02/13 10:25:44;;;;;;;5.10;1.63;;;7.50;99.90;;;;;;6218807;23;20078;-79
2024/02/13 10:28:11;;;;;;;5.07;1.60;;;7.30;99.90;;;;;;6219720;23;20000;-80
2024/02/13 10:30:38;;;;;;;5.97;1.70;;;7.30;99.90;;;;;;6219173;23;20007;-80
2024/02/13 10:33:09;;;;;;;6.67;1.43;;;7.20;99.90;;;;;;6218192;23;20499;-81
2024/02/13 10:35:35;;;;;;;7.77;2.43;;;7.10;99.90;;;;;;6218239;23;20596;-80
2024/02/13 10:38:04;;;;;;;6.00;1.70;;;7.00;99.90;;;;;;6218366;23;20068;-80
2024/02/13 10:40:30;;;;;;;7.13;1.60;;;7.00;99.90;;;;;;6218476;23;20331;-79
2024/02/13 10:42:57;;;;;;;5.47;1.60;;;7.00;99.90;;;;;;6218655;23;20084;-80
2024/02/13 10:45:30;;;;;;;5.83;1.60;;;7.10;99.90;;;;;;6218011;23;20001;-79
2024/02/13 10:48:09;;;;;;;5.40;1.70;;;7.30;99.90;;;;;;6217357;23;20004;-80
2024/02/13 10:50:36;;;;;;;5.90;1.77;;;7.60;99.90;;;;;;6217891;23;20007;-81
2024/02/13 10:53:03;;;;;;;6.47;1.77;;;7.70;99.90;;;;;;6217939;23;20028;-79
2024/02/13 10:55:33;;;;;;;4.93;1.70;;;7.70;99.90;;;;;;6215085;23;20016;-80
2024/02/13 10:58:00;;;;;;;7.87;2.00;;;7.90;99.90;;;;;;6217398;23;20003;-80
2024/02/13 11:00:26;;;;;;;9.17;1.87;;;8.10;99.90;;;;;;6217822;23;20001;-80
2024/02/13 11:02:55;;;;;;;7.17;1.70;;;8.40;99.90;;;;;;6217782;23;20001;-81
2024/02/13 11:05:25;;;;;;;5.00;1.60;;;8.60;99.90;;;;;;6214713;23;20079;-76
2024/02/13 11:07:51;;;;;;;5.07;1.70;;;8.80;99.90;;;;;;6215789;23;20389;-76
2024/02/13 11:10:17;;;;;;;6.17;1.70;;;9.10;99.90;;;;;;6217723;23;20020;-81
2024/02/13 11:12:45;;;;;;;9.17;1.60;;;9.20;99.90;;;;;;6217528;23;19996;-80
2024/02/13 11:15:17;;;;;;;4.63;1.37;;;9.40;99.90;;;;;;6216631;23;20472;-79
2024/02/13 11:17:47;;;;;;;6.50;1.80;;;9.60;99.90;;;;;;6215566;23;20143;-79
2024/02/13 11:20:14;;;;;;;10.40;1.70;;;9.70;99.90;;;;;;6217073;23;20001;-78
2024/02/13 11:22:50;;;;;;;6.83;1.63;;;9.80;99.90;;;;;;6218166;23;20004;-81
2024/02/13 11:25:16;;;;;;;9.37;1.70;;;9.90;99.90;;;;;;6218303;23;20454;-80
2024/02/13 11:27:44;;;;;;;10.03;1.57;;;9.90;99.90;;;;;;6217652;23;20001;-80
2024/02/13 11:30:20;;;;;;;8.10;1.47;;;9.80;99.90;;;;;;6217481;23;20027;-80
2024/02/13 11:32:46;;;;;;;9.77;1.70;;;9.70;99.90;;;;;;6217723;23;20011;-80
2024/02/13 11:35:17;;;;;;;4.00;1.30;;;9.60;99.90;;;;;;6217265;23;20028;-80
2024/02/13 11:37:42;;;;;;;9.77;1.70;;;9.50;99.90;;;;;;6218402;23;20060;-79
2024/02/13 11:40:12;;;;;;;6.40;1.65;;;9.30;99.90;;;;;;6217637;23;20004;-80
2024/02/13 11:42:38;;;;;;;2.57;1.27;;;9.20;99.90;;;;;;6217482;23;20009;-80
2024/02/13 11:45:08;;;;;;;4.00;1.70;;;9.10;99.90;;;;;;6217164;23;20005;-80
2024/02/13 11:47:33;;;;;;;7.30;1.40;;;9.10;99.90;;;;;;6216763;23;20012;-80
2024/02/13 11:49:59;;;;;;;3.00;1.40;;;9.00;99.90;;;;;;6216967;23;20005;-79
2024/02/13 11:52:25;;;;;;;4.90;1.20;;;9.00;99.90;;;;;;6218425;23;19996;-80
2024/02/13 11:54:51;;;;;;;6.57;1.57;;;9.00;99.90;;;;;;6217977;23;20181;-81
2024/02/13 11:57:18;;;;;;;4.50;1.37;;;8.90;99.90;;;;;;6215284;23;20375;-76
2024/02/13 11:59:54;;;;;;;7.63;1.53;;;9.10;99.90;;;;;;6212511;23;20047;-76
2024/02/13 12:02:19;;;;;;;5.97;1.60;;;9.20;99.90;;;;;;6211964;23;20523;-71
2024/02/13 12:04:45;;;;;;;4.97;1.30;;;9.30;99.90;;;;;;6211609;23;20008;-77
2024/02/13 12:07:13;;;;;;;4.55;1.35;;;9.50;99.90;;;;;;6210100;23;20493;-76
2024/02/13 12:09:42;;;;;;;5.27;1.80;;;9.60;99.90;;;;;;6212051;23;20003;-76
2024/02/13 12:12:13;;;;;;;4.20;1.40;;;9.70;99.90;;;;;;6212106;23;20079;-76
2024/02/13 12:14:39;;;;;;;4.45;1.70;;;9.70;99.90;;;;;;6213243;23;20005;-76
2024/02/13 12:17:07;;;;;;;7.57;2.33;;;9.70;99.90;;;;;;6213188;23;20458;-75
2024/02/13 12:19:43;;;;;;;5.30;1.73;;;9.50;99.90;;;;;;6213374;23;20001;-76
2024/02/13 12:22:10;;;;;;;3.85;1.20;;;9.50;99.90;;;;;;6213647;23;20080;-76
2024/02/13 12:24:44;;;;;;;6.60;1.30;;;9.60;99.90;;;;;;6211159;23;20012;-77
2024/02/13 12:27:10;;;;;;;6.43;1.37;;;9.80;99.90;;;;;;6213465;23;20008;-76
2024/02/13 12:29:38;;;;;;;5.57;1.50;;;9.90;99.90;;;;;;6186414;23;20483;-76
2024/02/13 12:32:09;;;;;;;4.37;1.50;;;9.90;99.90;;;;;;6212859;23;19997;-76
2024/02/13 12:34:36;;;;;;;6.13;1.30;;;10.10;99.90;;;;;;6213305;23;20086;-71
2024/02/13 12:37:05;;;;;;;4.90;1.50;;;10.20;99.90;;;;;;6213370;23;20431;-71
2024/02/13 12:39:31;;;;;;;8.27;1.30;;;10.50;99.90;;;;;;6213786;23;20001;-71
2024/02/13 12:41:57;;;;;;;5.23;1.60;;;10.60;99.90;;;;;;6213140;23;20004;-72
2024/02/13 12:44:26;;;;;;;10.50;2.20;;;10.80;99.90;;;;;;6213015;23;20035;-72
2024/02/13 12:46:52;;;;;;;3.80;1.50;;;10.60;99.90;;;;;;6213155;23;20007;-71
2024/02/13 12:49:19;;;;;;;7.00;1.50;;;10.50;99.90;;;;;;6213458;23;20563;-71
2024/02/13 12:51:45;;;;;;;6.50;1.50;;;10.20;99.90;;;;;;6213484;23;20013;-71
2024/02/13 12:54:11;;;;;;;4.75;1.65;;;10.00;99.90;;;;;;6212679;23;20428;-71
2024/02/13 12:56:40;;;;;;;6.50;1.40;;;9.90;99.90;;;;;;6212988;23;20054;-71